createdAt,value
2022-08-11T00:00:45.966Z,1020.92
2022-08-11T00:01:45.956Z,1020.89
2022-08-11T00:02:46.089Z,1020.88
2022-08-11T00:03:45.932Z,1020.93
2022-08-11T00:04:45.923Z,1020.90
2022-08-11T00:05:45.911Z,1020.91
2022-08-11T00:06:45.901Z,1020.89
2022-08-11T00:07:45.888Z,1020.90
2022-08-11T00:08:45.895Z,1020.89
2022-08-11T00:09:45.867Z,1020.87
2022-08-11T00:10:45.855Z,1020.87
2022-08-11T00:11:45.845Z,1020.91
2022-08-11T00:12:45.832Z,1020.90
2022-08-11T00:13:45.828Z,1020.91
2022-08-11T00:14:45.818Z,1020.93
2022-08-11T00:15:45.801Z,1020.93
2022-08-11T00:16:45.791Z,1020.89
2022-08-11T00:17:45.781Z,1020.89
2022-08-11T00:18:45.766Z,1020.91
2022-08-11T00:20:12.895Z,1020.90
2022-08-11T00:20:46.751Z,1020.87
2022-08-11T00:22:02.882Z,1020.88
2022-08-11T00:22:46.723Z,1020.88
2022-08-11T00:23:45.712Z,1020.93
2022-08-11T00:24:54.923Z,1020.89
2022-08-11T00:25:46.688Z,1020.88
2022-08-11T00:26:45.691Z,1020.90
2022-08-11T00:27:45.667Z,1020.91
2022-08-11T00:28:45.656Z,1020.93
2022-08-11T00:29:51.875Z,1020.92
2022-08-11T00:30:46.634Z,1020.91
2022-08-11T00:31:45.624Z,1020.89
2022-08-11T00:32:45.638Z,1020.90
2022-08-11T00:33:45.650Z,1020.89
2022-08-11T00:34:45.592Z,1020.89
2022-08-11T00:35:54.533Z,1020.86
2022-08-11T00:36:46.572Z,1020.87
2022-08-11T00:37:45.557Z,1020.86
2022-08-11T00:38:45.574Z,1020.88
2022-08-11T00:39:45.664Z,1020.89
2022-08-11T00:40:45.524Z,1020.87
2022-08-11T00:41:45.513Z,1020.84
2022-08-11T00:42:45.502Z,1020.88
2022-08-11T00:43:45.492Z,1020.89
2022-08-11T00:44:45.509Z,1020.87
2022-08-11T00:45:45.470Z,1020.83
2022-08-11T00:46:45.458Z,1020.88
2022-08-11T00:47:45.450Z,1020.88
2022-08-11T00:48:45.435Z,1020.89
2022-08-11T00:49:45.424Z,1020.95
2022-08-11T00:50:45.419Z,1020.96
2022-08-11T00:52:02.295Z,1020.98
2022-08-11T00:52:46.392Z,1021.00
2022-08-11T00:53:45.381Z,1020.96
2022-08-11T00:54:45.373Z,1020.97
2022-08-11T00:55:47.194Z,1020.91
2022-08-11T00:56:46.354Z,1020.93
2022-08-11T00:57:45.337Z,1020.95
2022-08-11T00:58:50.729Z,1020.92
2022-08-11T00:59:46.314Z,1020.96
2022-08-11T01:00:45.342Z,1020.92
2022-08-11T01:01:45.292Z,1020.93
2022-08-11T01:02:45.313Z,1020.92
2022-08-11T01:03:45.271Z,1020.93
2022-08-11T01:04:45.260Z,1020.92
2022-08-11T01:05:45.247Z,1020.94
2022-08-11T01:06:45.237Z,1020.93
2022-08-11T01:08:01.787Z,1020.91
2022-08-11T01:08:46.245Z,1020.91
2022-08-11T01:09:45.206Z,1020.92
2022-08-11T01:10:45.193Z,1020.95
2022-08-11T01:11:55.919Z,1020.93
2022-08-11T01:12:46.172Z,1020.95
2022-08-11T01:13:45.159Z,1020.93
2022-08-11T01:14:45.169Z,1020.94
2022-08-11T01:15:56.078Z,1020.92
2022-08-11T01:16:46.126Z,1020.99
2022-08-11T01:17:45.129Z,1020.99
2022-08-11T01:18:45.114Z,1021.00
2022-08-11T01:20:39.699Z,1020.96
2022-08-11T01:20:49.093Z,1020.97
2022-08-11T01:21:45.072Z,1020.90
2022-08-11T01:22:45.060Z,1020.98
2022-08-11T01:23:45.050Z,1020.93
2022-08-11T01:24:45.044Z,1020.93
2022-08-11T01:25:57.101Z,1020.90
2022-08-11T01:26:46.031Z,1020.97
2022-08-11T01:27:45.006Z,1020.96
2022-08-11T01:28:44.994Z,1020.96
2022-08-11T01:29:49.105Z,1021.02
2022-08-11T01:30:44.974Z,1021.01
2022-08-11T01:31:44.960Z,1021.00
2022-08-11T01:32:44.956Z,1020.99
2022-08-11T01:33:44.940Z,1021.00
2022-08-11T01:34:44.929Z,1021.02
2022-08-11T01:35:44.917Z,1020.99
2022-08-11T01:36:44.906Z,1020.98
2022-08-11T01:37:45.915Z,1021.01
2022-08-11T01:38:44.884Z,1021.02
2022-08-11T01:39:44.901Z,1020.99
2022-08-11T01:40:44.863Z,1021.03
2022-08-11T01:41:44.851Z,1020.99
2022-08-11T01:42:44.844Z,1021.04
2022-08-11T01:43:44.859Z,1021.01
2022-08-11T01:44:44.822Z,1021.04
2022-08-11T01:45:44.807Z,1021.00
2022-08-11T01:46:44.796Z,1020.96
2022-08-11T01:47:52.388Z,1020.97
2022-08-11T01:48:45.781Z,1020.98
2022-08-11T01:50:08.813Z,1020.97
2022-08-11T01:50:45.751Z,1020.98
2022-08-11T01:51:45.350Z,1020.94
2022-08-11T01:52:45.029Z,1020.97
2022-08-11T01:53:44.719Z,1020.95
2022-08-11T01:54:44.716Z,1020.94
2022-08-11T01:55:44.697Z,1020.94
2022-08-11T01:56:44.686Z,1020.96
2022-08-11T01:57:44.678Z,1020.95
2022-08-11T01:58:44.663Z,1020.95
2022-08-11T01:59:44.652Z,1020.98
2022-08-11T02:00:44.706Z,1020.93
2022-08-11T02:01:44.633Z,1020.94
2022-08-11T02:02:44.620Z,1020.95
2022-08-11T02:03:44.609Z,1020.96
2022-08-11T02:04:44.599Z,1020.92
2022-08-11T02:05:44.585Z,1020.92
2022-08-11T02:06:44.597Z,1020.91
2022-08-11T02:07:44.564Z,1020.92
2022-08-11T02:08:47.597Z,1020.90
2022-08-11T02:09:49.528Z,1020.91
2022-08-11T02:10:50.355Z,1020.90
2022-08-11T02:11:45.540Z,1020.86
2022-08-11T02:12:52.136Z,1020.91
2022-08-11T02:13:46.129Z,1020.87
2022-08-11T02:15:04.507Z,1020.86
2022-08-11T02:15:45.475Z,1020.86
2022-08-11T02:16:44.465Z,1020.88
2022-08-11T02:17:44.482Z,1020.85
2022-08-11T02:18:44.443Z,1020.83
2022-08-11T02:19:45.316Z,1020.89
2022-08-11T02:20:44.421Z,1020.88
2022-08-11T02:21:44.409Z,1020.89
2022-08-11T02:22:44.401Z,1020.89
2022-08-11T02:24:05.836Z,1020.92
2022-08-11T02:24:45.376Z,1020.88
2022-08-11T02:25:44.368Z,1020.89
2022-08-11T02:26:44.359Z,1020.87
2022-08-11T02:27:44.345Z,1020.87
2022-08-11T02:28:46.557Z,1020.85
2022-08-11T02:29:44.328Z,1020.88
2022-08-11T02:30:44.312Z,1020.87
2022-08-11T02:32:14.910Z,1020.88
2022-08-11T02:32:45.288Z,1020.84
2022-08-11T02:33:44.278Z,1020.88
2022-08-11T02:34:44.267Z,1020.87
2022-08-11T02:35:45.260Z,1020.79
2022-08-11T02:36:44.245Z,1020.84
2022-08-11T02:37:44.233Z,1020.84
2022-08-11T02:38:44.224Z,1020.83
2022-08-11T02:39:44.322Z,1020.85
2022-08-11T02:40:44.201Z,1020.82
2022-08-11T02:41:44.198Z,1020.78
2022-08-11T02:42:44.448Z,1020.83
2022-08-11T02:43:51.199Z,1020.78
2022-08-11T02:44:45.155Z,1020.79
2022-08-11T02:45:44.145Z,1020.79
2022-08-11T02:46:44.134Z,1020.77
2022-08-11T02:47:44.145Z,1020.76
2022-08-11T02:48:44.112Z,1020.77
2022-08-11T02:49:44.102Z,1020.74
2022-08-11T02:50:44.090Z,1020.76
2022-08-11T02:51:44.079Z,1020.72
2022-08-11T02:52:44.068Z,1020.72
2022-08-11T02:53:44.073Z,1020.70
2022-08-11T02:54:45.045Z,1020.72
2022-08-11T02:55:56.072Z,1020.72
2022-08-11T02:56:45.023Z,1020.74
2022-08-11T02:57:44.012Z,1020.75
2022-08-11T02:58:44.003Z,1020.75
2022-08-11T02:59:44.019Z,1020.75
2022-08-11T03:00:43.980Z,1020.76
2022-08-11T03:01:43.993Z,1020.76
2022-08-11T03:02:43.958Z,1020.82
2022-08-11T03:03:43.946Z,1020.78
2022-08-11T03:04:43.935Z,1020.78
2022-08-11T03:05:43.931Z,1020.78
2022-08-11T03:06:43.918Z,1020.81
2022-08-11T03:07:43.903Z,1020.79
2022-08-11T03:08:43.891Z,1020.80
2022-08-11T03:09:43.889Z,1020.80
2022-08-11T03:10:43.872Z,1020.85
2022-08-11T03:11:43.881Z,1020.85
2022-08-11T03:12:43.848Z,1020.80
2022-08-11T03:13:43.837Z,1020.84
2022-08-11T03:14:43.826Z,1020.83
2022-08-11T03:15:44.624Z,1020.81
2022-08-11T03:16:43.805Z,1020.82
2022-08-11T03:17:43.800Z,1020.81
2022-08-11T03:18:43.781Z,1020.78
2022-08-11T03:19:43.771Z,1020.82
2022-08-11T03:20:43.855Z,1020.79
2022-08-11T03:22:03.094Z,1020.79
2022-08-11T03:22:44.759Z,1020.81
2022-08-11T03:23:43.726Z,1020.79
2022-08-11T03:24:43.715Z,1020.76
2022-08-11T03:25:43.705Z,1020.81
2022-08-11T03:26:43.694Z,1020.82
2022-08-11T03:27:43.681Z,1020.82
2022-08-11T03:28:43.708Z,1020.81
2022-08-11T03:29:43.660Z,1020.86
2022-08-11T03:30:43.650Z,1020.85
2022-08-11T03:31:43.639Z,1020.87
2022-08-11T03:32:43.627Z,1020.87
2022-08-11T03:33:43.617Z,1020.84
2022-08-11T03:34:43.622Z,1020.84
2022-08-11T03:35:43.596Z,1020.85
2022-08-11T03:37:16.004Z,1020.86
2022-08-11T03:37:44.571Z,1020.85
2022-08-11T03:38:43.561Z,1020.87
2022-08-11T03:39:52.634Z,1020.85
2022-08-11T03:40:44.545Z,1020.88
2022-08-11T03:42:01.997Z,1020.88
2022-08-11T03:42:44.515Z,1020.91
2022-08-11T03:43:45.665Z,1020.89
2022-08-11T03:44:44.494Z,1020.89
2022-08-11T03:45:43.484Z,1020.86
2022-08-11T03:46:43.481Z,1020.85
2022-08-11T03:47:54.972Z,1020.86
2022-08-11T03:48:44.455Z,1020.84
2022-08-11T03:49:43.445Z,1020.83
2022-08-11T03:50:43.429Z,1020.81
2022-08-11T03:51:51.692Z,1020.87
2022-08-11T03:52:44.419Z,1020.83
2022-08-11T03:53:43.394Z,1020.87
2022-08-11T03:54:43.384Z,1020.86
2022-08-11T03:55:43.373Z,1020.86
2022-08-11T03:56:43.364Z,1020.87
2022-08-11T03:57:43.352Z,1020.88
2022-08-11T03:58:46.202Z,1020.84
2022-08-11T03:59:43.329Z,1020.88
2022-08-11T04:00:43.319Z,1020.86
2022-08-11T04:01:43.364Z,1020.89
2022-08-11T04:02:43.295Z,1020.88
2022-08-11T04:03:43.286Z,1020.89
2022-08-11T04:04:45.333Z,1020.85
2022-08-11T04:05:44.262Z,1020.84
2022-08-11T04:06:43.252Z,1020.81
2022-08-11T04:07:43.241Z,1020.86
2022-08-11T04:08:43.230Z,1020.83
2022-08-11T04:09:43.219Z,1020.85
2022-08-11T04:10:43.214Z,1020.82
2022-08-11T04:11:43.200Z,1020.85
2022-08-11T04:12:47.581Z,1020.84
2022-08-11T04:13:43.173Z,1020.84
2022-08-11T04:14:43.163Z,1020.85
2022-08-11T04:15:43.156Z,1020.83
2022-08-11T04:16:43.169Z,1020.84
2022-08-11T04:17:43.130Z,1020.82
2022-08-11T04:18:43.119Z,1020.87
2022-08-11T04:19:43.108Z,1020.89
2022-08-11T04:20:43.097Z,1020.92
2022-08-11T04:21:43.087Z,1020.92
2022-08-11T04:22:43.083Z,1020.93
2022-08-11T04:24:35.404Z,1020.91
2022-08-11T04:24:48.344Z,1020.91
2022-08-11T04:25:57.588Z,1020.92
2022-08-11T04:26:44.029Z,1020.90
2022-08-11T04:27:43.020Z,1020.91
2022-08-11T04:28:50.176Z,1020.93
2022-08-11T04:30:01.934Z,1020.92
2022-08-11T04:31:52.861Z,1020.90
2022-08-11T04:32:52.686Z,1020.94
2022-08-11T04:33:52.697Z,1020.96
2022-08-11T04:34:52.665Z,1021.01
2022-08-11T04:35:52.654Z,1020.94
2022-08-11T04:36:52.643Z,1020.94
2022-08-11T04:37:53.629Z,1020.94
2022-08-11T04:38:52.621Z,1020.91
2022-08-11T04:39:52.712Z,1020.90
2022-08-11T04:40:52.601Z,1020.95
2022-08-11T04:41:52.590Z,1020.93
2022-08-11T04:42:52.578Z,1020.93
2022-08-11T04:44:06.247Z,1020.95
2022-08-11T04:44:53.562Z,1020.93
2022-08-11T04:45:52.558Z,1020.95
2022-08-11T04:46:52.534Z,1020.95
2022-08-11T04:48:01.655Z,1020.94
2022-08-11T04:48:53.512Z,1020.97
2022-08-11T04:49:52.503Z,1020.97
2022-08-11T04:51:10.132Z,1020.97
2022-08-11T04:51:53.481Z,1020.93
2022-08-11T04:52:52.474Z,1020.95
2022-08-11T04:53:52.549Z,1020.97
2022-08-11T04:54:52.449Z,1020.97
2022-08-11T04:55:52.439Z,1020.92
2022-08-11T04:56:52.433Z,1020.96
2022-08-11T04:57:52.418Z,1020.95
2022-08-11T04:58:52.407Z,1020.94
2022-08-11T04:59:52.395Z,1020.97
2022-08-11T05:00:52.385Z,1020.97
2022-08-11T05:01:52.482Z,1021.00
2022-08-11T05:02:52.378Z,1020.95
2022-08-11T05:03:52.351Z,1020.96
2022-08-11T05:04:52.340Z,1021.00
2022-08-11T05:05:56.164Z,1021.01
2022-08-11T05:06:52.318Z,1020.98
2022-08-11T05:07:52.311Z,1020.95
2022-08-11T05:08:52.304Z,1020.98
2022-08-11T05:09:52.288Z,1021.00
2022-08-11T05:10:52.275Z,1020.98
2022-08-11T05:11:52.264Z,1021.00
2022-08-11T05:12:53.253Z,1021.01
2022-08-11T05:13:52.246Z,1021.03
2022-08-11T05:14:52.341Z,1021.03
2022-08-11T05:15:52.221Z,1020.99
2022-08-11T05:16:52.215Z,1021.06
2022-08-11T05:17:52.201Z,1021.00
2022-08-11T05:18:52.188Z,1021.02
2022-08-11T05:19:52.179Z,1021.06
2022-08-11T05:20:52.198Z,1021.06
2022-08-11T05:21:52.159Z,1021.06
2022-08-11T05:22:52.144Z,1021.11
2022-08-11T05:23:52.135Z,1021.08
2022-08-11T05:24:52.124Z,1021.10
2022-08-11T05:26:42.805Z,1021.10
2022-08-11T05:26:53.106Z,1021.09
2022-08-11T05:27:52.093Z,1021.10
2022-08-11T05:28:52.080Z,1021.11
2022-08-11T05:29:52.071Z,1021.11
2022-08-11T05:30:52.059Z,1021.07
2022-08-11T05:31:52.048Z,1021.08
2022-08-11T05:32:52.042Z,1021.10
2022-08-11T05:33:52.027Z,1021.11
2022-08-11T05:34:52.015Z,1021.09
2022-08-11T05:36:02.123Z,1021.12
2022-08-11T05:36:56.401Z,1021.09
2022-08-11T05:37:53.005Z,1021.10
2022-08-11T05:38:51.972Z,1021.09
2022-08-11T05:39:52.011Z,1021.09
2022-08-11T05:40:53.281Z,1021.12
2022-08-11T05:41:52.939Z,1021.11
2022-08-11T05:42:51.931Z,1021.08
2022-08-11T05:44:20.682Z,1021.06
2022-08-11T05:44:52.907Z,1021.12
2022-08-11T05:46:03.026Z,1021.11
2022-08-11T05:46:52.885Z,1021.16
2022-08-11T05:47:51.875Z,1021.14
2022-08-11T05:48:51.866Z,1021.14
2022-08-11T05:49:51.861Z,1021.11
2022-08-11T05:50:51.844Z,1021.17
2022-08-11T05:51:54.654Z,1021.14
2022-08-11T05:52:56.535Z,1021.14
2022-08-11T05:53:52.809Z,1021.18
2022-08-11T05:54:51.798Z,1021.15
2022-08-11T05:56:02.430Z,1021.16
2022-08-11T05:56:52.776Z,1021.20
2022-08-11T05:57:52.068Z,1021.20
2022-08-11T05:58:51.760Z,1021.25
2022-08-11T05:59:51.745Z,1021.20
2022-08-11T06:00:51.734Z,1021.23
2022-08-11T06:01:51.751Z,1021.23
2022-08-11T06:02:51.715Z,1021.22
2022-08-11T06:03:58.172Z,1021.23
2022-08-11T06:04:52.692Z,1021.26
2022-08-11T06:05:51.771Z,1021.21
2022-08-11T06:06:51.669Z,1021.26
2022-08-11T06:07:51.663Z,1021.25
2022-08-11T06:08:51.646Z,1021.24
2022-08-11T06:09:51.635Z,1021.27
2022-08-11T06:10:51.625Z,1021.26
2022-08-11T06:11:51.614Z,1021.21
2022-08-11T06:12:51.607Z,1021.23
2022-08-11T06:13:51.613Z,1021.28
2022-08-11T06:14:51.582Z,1021.25
2022-08-11T06:15:51.570Z,1021.30
2022-08-11T06:16:51.559Z,1021.33
2022-08-11T06:17:51.551Z,1021.31
2022-08-11T06:18:51.539Z,1021.31
2022-08-11T06:19:51.557Z,1021.33
2022-08-11T06:20:51.517Z,1021.31
2022-08-11T06:21:51.507Z,1021.31
2022-08-11T06:22:53.181Z,1021.35
2022-08-11T06:23:51.483Z,1021.30
2022-08-11T06:24:51.474Z,1021.33
2022-08-11T06:25:51.485Z,1021.29
2022-08-11T06:27:13.466Z,1021.31
2022-08-11T06:27:52.443Z,1021.32
2022-08-11T06:28:51.431Z,1021.36
2022-08-11T06:29:54.960Z,1021.35
2022-08-11T06:30:51.409Z,1021.36
2022-08-11T06:31:51.406Z,1021.37
2022-08-11T06:32:51.388Z,1021.37
2022-08-11T06:33:51.379Z,1021.38
2022-08-11T06:34:51.366Z,1021.38
2022-08-11T06:35:51.355Z,1021.32
2022-08-11T06:36:51.345Z,1021.31
2022-08-11T06:37:51.339Z,1021.39
2022-08-11T06:38:52.321Z,1021.35
2022-08-11T06:39:51.343Z,1021.40
2022-08-11T06:40:51.301Z,1021.37
2022-08-11T06:41:51.292Z,1021.40
2022-08-11T06:42:51.279Z,1021.36
2022-08-11T06:43:55.598Z,1021.34
2022-08-11T06:44:52.255Z,1021.34
2022-08-11T06:45:51.246Z,1021.34
2022-08-11T06:46:51.235Z,1021.34
2022-08-11T06:47:51.225Z,1021.36
2022-08-11T06:48:51.212Z,1021.29
2022-08-11T06:49:51.226Z,1021.31
2022-08-11T06:50:51.191Z,1021.31
2022-08-11T06:51:51.181Z,1021.33
2022-08-11T06:52:51.177Z,1021.31
2022-08-11T06:54:04.586Z,1021.29
2022-08-11T06:54:52.154Z,1021.30
2022-08-11T06:55:58.096Z,1021.30
2022-08-11T06:57:06.703Z,1021.31
2022-08-11T06:57:52.117Z,1021.28
2022-08-11T06:58:51.108Z,1021.33
2022-08-11T06:59:51.096Z,1021.34
2022-08-11T07:00:51.090Z,1021.34
2022-08-11T07:01:51.157Z,1021.30
2022-08-11T07:02:51.061Z,1021.26
2022-08-11T07:03:51.050Z,1021.24
2022-08-11T07:04:51.040Z,1021.26
2022-08-11T07:05:51.029Z,1021.26
2022-08-11T07:06:51.523Z,1021.28
2022-08-11T07:07:51.012Z,1021.27
2022-08-11T07:08:50.998Z,1021.22
2022-08-11T07:09:50.987Z,1021.24
2022-08-11T07:10:50.977Z,1021.24
2022-08-11T07:11:50.965Z,1021.28
2022-08-11T07:12:50.960Z,1021.25
2022-08-11T07:13:50.943Z,1021.24
2022-08-11T07:14:50.937Z,1021.27
2022-08-11T07:16:13.230Z,1021.23
2022-08-11T07:16:51.909Z,1021.23
2022-08-11T07:17:50.901Z,1021.23
2022-08-11T07:18:50.894Z,1021.20
2022-08-11T07:19:50.879Z,1021.22
2022-08-11T07:20:51.866Z,1021.20
2022-08-11T07:22:02.580Z,1021.19
2022-08-11T07:22:51.843Z,1021.18
2022-08-11T07:23:50.834Z,1021.19
2022-08-11T07:24:59.210Z,1021.15
2022-08-11T07:25:51.813Z,1021.14
2022-08-11T07:26:50.806Z,1021.17
2022-08-11T07:27:50.792Z,1021.16
2022-08-11T07:28:50.779Z,1021.12
2022-08-11T07:29:50.770Z,1021.12
2022-08-11T07:30:51.899Z,1021.13
2022-08-11T07:31:50.756Z,1021.09
2022-08-11T07:32:50.735Z,1021.09
2022-08-11T07:34:07.267Z,1021.08
2022-08-11T07:34:51.798Z,1021.11
2022-08-11T07:35:50.703Z,1021.14
2022-08-11T07:36:50.704Z,1021.11
2022-08-11T07:37:50.681Z,1021.13
2022-08-11T07:38:51.670Z,1021.11
2022-08-11T07:39:50.714Z,1021.07
2022-08-11T07:40:50.652Z,1021.10
2022-08-11T07:41:50.638Z,1021.13
2022-08-11T07:42:50.689Z,1021.09
2022-08-11T07:43:50.617Z,1021.07
2022-08-11T07:44:50.606Z,1021.09
2022-08-11T07:45:50.595Z,1021.11
2022-08-11T07:46:50.587Z,1021.06
2022-08-11T07:47:50.574Z,1021.12
2022-08-11T07:48:50.570Z,1021.11
2022-08-11T07:49:50.558Z,1021.10
2022-08-11T07:50:55.548Z,1021.06
2022-08-11T07:51:51.532Z,1021.08
2022-08-11T07:52:52.826Z,1021.11
2022-08-11T07:53:58.766Z,1021.09
2022-08-11T07:54:51.527Z,1021.07
2022-08-11T07:55:53.394Z,1021.06
2022-08-11T07:57:07.259Z,1021.05
2022-08-11T07:58:14.066Z,1021.07
2022-08-11T07:58:53.256Z,1021.08
2022-08-11T08:00:00.622Z,1021.07
2022-08-11T08:00:51.669Z,1021.07
2022-08-11T08:01:50.527Z,1021.09
2022-08-11T08:02:50.413Z,1021.07
2022-08-11T08:03:54.525Z,1021.09
2022-08-11T08:04:50.428Z,1021.09
2022-08-11T08:05:50.381Z,1021.09
2022-08-11T08:06:50.374Z,1021.05
2022-08-11T08:07:50.357Z,1021.06
2022-08-11T08:08:50.346Z,1021.07
2022-08-11T08:09:50.335Z,1021.08
2022-08-11T08:10:50.325Z,1021.00
2022-08-11T08:11:50.314Z,1021.07
2022-08-11T08:12:50.314Z,1021.07
2022-08-11T08:13:50.568Z,1021.02
2022-08-11T08:14:50.305Z,1021.01
2022-08-11T08:15:50.274Z,1021.01
2022-08-11T08:16:50.260Z,1021.02
2022-08-11T08:18:09.408Z,1021.05
2022-08-11T08:18:51.250Z,1021.02
2022-08-11T08:19:50.228Z,1021.05
2022-08-11T08:20:50.531Z,1021.04
2022-08-11T08:21:50.207Z,1021.01
2022-08-11T08:22:50.424Z,1021.03
2022-08-11T08:23:56.362Z,1021.03
2022-08-11T08:24:51.317Z,1021.03
2022-08-11T08:25:50.162Z,1021.04
2022-08-11T08:26:51.848Z,1021.05
2022-08-11T08:27:50.142Z,1021.06
2022-08-11T08:28:50.129Z,1021.03
2022-08-11T08:29:50.119Z,1021.04
2022-08-11T08:30:50.142Z,1021.04
2022-08-11T08:31:50.096Z,1021.05
2022-08-11T08:32:50.086Z,1021.01
2022-08-11T08:33:50.076Z,1021.02
2022-08-11T08:34:50.107Z,1021.04
2022-08-11T08:35:54.285Z,1020.99
2022-08-11T08:36:51.054Z,1021.01
2022-08-11T08:37:50.032Z,1020.97
2022-08-11T08:38:50.045Z,1020.96
2022-08-11T08:39:50.077Z,1021.00
2022-08-11T08:40:50.002Z,1020.98
2022-08-11T08:41:49.990Z,1020.96
2022-08-11T08:42:49.985Z,1020.94
2022-08-11T08:43:49.974Z,1020.97
2022-08-11T08:44:50.094Z,1020.97
2022-08-11T08:45:49.947Z,1020.92
2022-08-11T08:46:49.935Z,1020.93
2022-08-11T08:47:53.201Z,1020.98
2022-08-11T08:48:49.918Z,1020.95
2022-08-11T08:49:49.902Z,1020.94
2022-08-11T08:50:49.892Z,1020.93
2022-08-11T08:51:54.686Z,1020.97
2022-08-11T08:52:51.061Z,1020.94
2022-08-11T08:53:53.219Z,1020.96
2022-08-11T08:54:50.856Z,1020.99
2022-08-11T08:55:49.840Z,1020.97
2022-08-11T08:56:49.826Z,1020.93
2022-08-11T08:57:49.816Z,1020.93
2022-08-11T08:58:49.805Z,1020.91
2022-08-11T08:59:49.817Z,1020.91
2022-08-11T09:00:49.790Z,1020.91
2022-08-11T09:01:49.798Z,1020.90
2022-08-11T09:02:49.761Z,1020.87
2022-08-11T09:04:07.109Z,1020.87
2022-08-11T09:04:50.742Z,1020.89
2022-08-11T09:05:49.729Z,1020.87
2022-08-11T09:06:51.633Z,1020.81
2022-08-11T09:07:49.707Z,1020.83
2022-08-11T09:08:51.909Z,1020.86
2022-08-11T09:09:49.685Z,1020.79
2022-08-11T09:10:49.675Z,1020.79
2022-08-11T09:11:49.664Z,1020.80
2022-08-11T09:12:49.836Z,1020.78
2022-08-11T09:14:04.955Z,1020.77
2022-08-11T09:14:50.636Z,1020.81
2022-08-11T09:15:53.132Z,1020.76
2022-08-11T09:16:50.610Z,1020.73
2022-08-11T09:17:49.616Z,1020.77
2022-08-11T09:18:49.594Z,1020.76
2022-08-11T09:19:56.805Z,1020.76
2022-08-11T09:20:50.572Z,1020.75
2022-08-11T09:21:49.912Z,1020.81
2022-08-11T09:23:03.364Z,1020.83
2022-08-11T09:24:07.837Z,1020.84
2022-08-11T09:24:50.522Z,1020.80
2022-08-11T09:25:49.513Z,1020.76
2022-08-11T09:26:49.503Z,1020.74
2022-08-11T09:27:50.409Z,1020.78
2022-08-11T09:28:49.485Z,1020.77
2022-08-11T09:29:49.477Z,1020.72
2022-08-11T09:30:49.458Z,1020.69
2022-08-11T09:31:49.447Z,1020.72
2022-08-11T09:32:49.439Z,1020.73
2022-08-11T09:33:49.426Z,1020.73
2022-08-11T09:34:49.415Z,1020.72
2022-08-11T09:35:49.425Z,1020.70
2022-08-11T09:36:49.394Z,1020.69
2022-08-11T09:37:54.113Z,1020.71
2022-08-11T09:38:50.376Z,1020.66
2022-08-11T09:39:49.391Z,1020.65
2022-08-11T09:40:56.253Z,1020.69
2022-08-11T09:42:01.156Z,1020.69
2022-08-11T09:42:50.329Z,1020.69
2022-08-11T09:43:49.316Z,1020.72
2022-08-11T09:44:49.842Z,1020.64
2022-08-11T09:45:49.297Z,1020.64
2022-08-11T09:46:49.285Z,1020.65
2022-08-11T09:47:49.281Z,1020.62
2022-08-11T09:48:49.263Z,1020.61
2022-08-11T09:49:49.255Z,1020.53
2022-08-11T09:50:49.243Z,1020.58
2022-08-11T09:52:02.259Z,1020.60
2022-08-11T09:53:16.791Z,1020.57
2022-08-11T09:54:02.817Z,1020.60
2022-08-11T09:54:50.198Z,1020.54
2022-08-11T09:55:49.190Z,1020.56
2022-08-11T09:56:49.178Z,1020.58
2022-08-11T09:57:49.169Z,1020.56
2022-08-11T09:58:49.163Z,1020.57
2022-08-11T09:59:49.146Z,1020.50
2022-08-11T10:00:49.198Z,1020.49
2022-08-11T10:01:49.128Z,1020.49
2022-08-11T10:02:49.113Z,1020.51
2022-08-11T10:03:49.103Z,1020.49
2022-08-11T10:04:49.097Z,1020.48
2022-08-11T10:05:49.085Z,1020.52
2022-08-11T10:06:53.964Z,1020.48
2022-08-11T10:07:50.056Z,1020.50
2022-08-11T10:08:49.052Z,1020.46
2022-08-11T10:09:49.039Z,1020.44
2022-08-11T10:10:49.034Z,1020.41
2022-08-11T10:11:55.407Z,1020.44
2022-08-11T10:12:50.002Z,1020.39
2022-08-11T10:14:31.760Z,1020.37
2022-08-11T10:14:49.982Z,1020.35
2022-08-11T10:15:59.610Z,1020.37
2022-08-11T10:16:49.970Z,1020.35
2022-08-11T10:17:48.951Z,1020.33
2022-08-11T10:18:48.941Z,1020.34
2022-08-11T10:20:05.254Z,1020.28
2022-08-11T10:20:49.920Z,1020.27
2022-08-11T10:21:48.906Z,1020.31
2022-08-11T10:22:48.905Z,1020.28
2022-08-11T10:24:01.134Z,1020.25
2022-08-11T10:24:49.873Z,1020.22
2022-08-11T10:25:48.863Z,1020.23
2022-08-11T10:26:48.853Z,1020.21
2022-08-11T10:28:32.972Z,1020.21
2022-08-11T10:29:09.908Z,1020.20
2022-08-11T10:29:51.923Z,1020.21
2022-08-11T10:30:48.811Z,1020.18
2022-08-11T10:31:57.452Z,1020.22
2022-08-11T10:32:58.708Z,1020.20
2022-08-11T10:33:59.229Z,1020.21
2022-08-11T10:34:54.715Z,1020.24
2022-08-11T10:35:49.755Z,1020.27
2022-08-11T10:36:48.743Z,1020.27
2022-08-11T10:38:06.744Z,1020.21
2022-08-11T10:38:49.723Z,1020.19
2022-08-11T10:39:48.837Z,1020.17
2022-08-11T10:40:48.724Z,1020.23
2022-08-11T10:42:03.495Z,1020.15
2022-08-11T10:42:57.941Z,1020.16
2022-08-11T10:44:01.505Z,1020.12
2022-08-11T10:44:49.657Z,1020.13
2022-08-11T10:45:48.650Z,1020.09
2022-08-11T10:46:48.641Z,1020.11
2022-08-11T10:47:49.724Z,1020.11
2022-08-11T10:48:48.628Z,1020.11
2022-08-11T10:49:48.607Z,1020.11
2022-08-11T10:50:48.594Z,1020.13
2022-08-11T10:51:51.115Z,1020.09
2022-08-11T10:52:48.577Z,1020.09
2022-08-11T10:53:48.561Z,1020.03
2022-08-11T10:54:48.549Z,1020.04
2022-08-11T10:55:48.620Z,1020.02
2022-08-11T10:56:48.527Z,1019.98
2022-08-11T10:58:04.620Z,1019.97
2022-08-11T10:58:49.542Z,1019.92
2022-08-11T10:59:48.494Z,1019.95
2022-08-11T11:00:48.518Z,1019.94
2022-08-11T11:01:48.472Z,1019.95
2022-08-11T11:03:21.968Z,1019.93
2022-08-11T11:03:49.451Z,1019.92
2022-08-11T11:04:50.962Z,1019.88
2022-08-11T11:06:27.525Z,1019.91
2022-08-11T11:06:49.420Z,1019.89
2022-08-11T11:07:48.409Z,1019.85
2022-08-11T11:09:48.391Z,1019.87
2022-08-11T11:10:48.388Z,1019.86
2022-08-11T11:11:48.367Z,1019.83
2022-08-11T11:12:48.355Z,1019.80
2022-08-11T11:13:54.932Z,1019.78
2022-08-11T11:14:52.697Z,1019.83
2022-08-11T11:15:49.330Z,1019.83
2022-08-11T11:16:48.313Z,1019.81
2022-08-11T11:17:48.302Z,1019.86
2022-08-11T11:18:48.292Z,1019.85
2022-08-11T11:19:49.279Z,1019.85
2022-08-11T11:20:48.347Z,1019.82
2022-08-11T11:21:48.275Z,1019.79
2022-08-11T11:22:48.247Z,1019.77
2022-08-11T11:23:48.239Z,1019.76
2022-08-11T11:24:48.227Z,1019.72
2022-08-11T11:25:48.216Z,1019.70
2022-08-11T11:26:48.207Z,1019.71
2022-08-11T11:27:48.201Z,1019.71
2022-08-11T11:28:48.183Z,1019.65
2022-08-11T11:29:48.173Z,1019.70
2022-08-11T11:30:48.164Z,1019.67
2022-08-11T11:31:48.161Z,1019.67
2022-08-11T11:32:49.860Z,1019.77
2022-08-11T11:34:06.767Z,1019.66
2022-08-11T11:34:53.639Z,1019.68
2022-08-11T11:35:48.107Z,1019.71
2022-08-11T11:36:48.096Z,1019.62
2022-08-11T11:38:03.738Z,1019.58
2022-08-11T11:38:49.083Z,1019.62
2022-08-11T11:39:48.082Z,1019.64
2022-08-11T11:40:48.057Z,1019.66
2022-08-11T11:41:48.047Z,1019.66
2022-08-11T11:42:48.035Z,1019.69
2022-08-11T11:43:48.023Z,1019.64
2022-08-11T11:44:48.048Z,1019.64
2022-08-11T11:45:48.005Z,1019.60
2022-08-11T11:46:47.995Z,1019.60
2022-08-11T11:47:47.986Z,1019.64
2022-08-11T11:48:47.971Z,1019.68
2022-08-11T11:49:47.960Z,1019.61
2022-08-11T11:50:47.965Z,1019.60
2022-08-11T11:51:50.260Z,1019.54
2022-08-11T11:52:47.933Z,1019.56
2022-08-11T11:53:47.919Z,1019.53
2022-08-11T11:54:47.908Z,1019.50
2022-08-11T11:55:47.898Z,1019.49
2022-08-11T11:56:47.894Z,1019.51
2022-08-11T11:57:59.337Z,1019.53
2022-08-11T11:58:48.867Z,1019.45
2022-08-11T11:59:47.855Z,1019.45
2022-08-11T12:00:47.846Z,1019.55
2022-08-11T12:01:50.416Z,1019.54
2022-08-11T12:02:47.844Z,1019.56
2022-08-11T12:03:47.812Z,1019.51
2022-08-11T12:04:47.802Z,1019.49
2022-08-11T12:05:47.792Z,1019.45
2022-08-11T12:06:47.781Z,1019.40
2022-08-11T12:07:47.770Z,1019.41